Time;durP1;ratioP1;P1;durP2;ratioP2;P2;SDS_P1;SDS_P2;PMS_P1;PMS_P2;Temp;Humidity;BMP_temperature;BMP_pressure;BME280_temperature;BME280_humidity;BME280_pressure;Samples;Min_cycle;Max_cycle;Signal;HPM_P1;HPM_P2
2023/07/10 00:01:29;;;;;;;852.57;795.37;;;20.60;99.90;;;;;;5133601;27;20445;-73
2023/07/10 00:03:56;;;;;;;859.03;802.13;;;20.60;99.90;;;;;;5134102;27;20448;-73
2023/07/10 00:06:23;;;;;;;862.23;804.80;;;20.50;99.90;;;;;;5133878;27;20472;-73
2023/07/10 00:08:50;;;;;;;879.53;820.57;;;20.40;99.90;;;;;;5133918;27;20966;-73
2023/07/10 00:11:20;;;;;;;894.67;834.37;;;20.30;99.90;;;;;;5133778;27;20452;-73
2023/07/10 00:13:49;;;;;;;902.03;839.43;;;20.30;99.90;;;;;;5134457;27;20513;-73
2023/07/10 00:16:18;;;;;;;906.83;844.27;;;20.20;99.90;;;;;;5133599;27;20874;-73
2023/07/10 00:18:45;;;;;;;915.80;852.20;;;20.00;99.90;;;;;;5133915;27;20835;-74
2023/07/10 00:21:12;;;;;;;926.97;859.83;;;20.00;99.90;;;;;;5134061;27;20859;-73
2023/07/10 00:23:39;;;;;;;928.73;860.17;;;19.90;99.90;;;;;;5134077;27;20998;-74
2023/07/10 00:26:12;;;;;;;906.37;836.97;;;19.90;99.90;;;;;;5133272;27;20566;-72
2023/07/10 00:28:39;;;;;;;901.63;834.00;;;19.90;99.90;;;;;;5133264;27;20543;-73
2023/07/10 00:31:09;;;;;;;901.50;833.97;;;19.90;99.90;;;;;;5132934;27;20454;-72
2023/07/10 00:33:35;;;;;;;890.80;825.07;;;19.90;99.90;;;;;;5133188;27;20535;-73
2023/07/10 00:36:02;;;;;;;889.43;823.87;;;19.90;99.90;;;;;;5133147;27;20494;-73
2023/07/10 00:38:31;;;;;;;884.83;818.80;;;19.90;99.90;;;;;;5133218;27;20802;-73
2023/07/10 00:41:00;;;;;;;885.37;820.00;;;19.90;99.90;;;;;;5133032;27;20518;-73
2023/07/10 00:43:33;;;;;;;873.27;808.67;;;20.00;99.90;;;;;;5133460;27;20532;-73
2023/07/10 00:46:10;;;;;;;862.87;800.77;;;20.00;99.90;;;;;;5132595;27;21053;-73
2023/07/10 00:48:43;;;;;;;844.57;784.83;;;20.10;99.90;;;;;;5133026;27;20456;-73
2023/07/10 00:51:24;;;;;;;797.93;742.77;;;20.20;99.90;;;;;;5133202;27;20458;-74
2023/07/10 00:53:53;;;;;;;781.00;728.40;;;20.30;99.90;;;;;;5132536;27;20452;-72
2023/07/10 00:56:20;;;;;;;757.03;705.70;;;20.30;99.90;;;;;;5132419;27;20487;-73
2023/07/10 00:58:49;;;;;;;684.10;638.83;;;20.30;99.90;;;;;;5132463;27;20448;-72
2023/07/10 01:01:18;;;;;;;588.47;550.37;;;20.30;99.90;;;;;;5133169;27;20483;-72
2023/07/10 01:03:50;;;;;;;590.27;552.43;;;20.30;99.90;;;;;;5132799;27;20448;-73
2023/07/10 01:06:20;;;;;;;522.60;488.70;;;20.30;99.90;;;;;;5132197;27;20979;-72
2023/07/10 01:08:51;;;;;;;548.07;513.07;;;20.30;99.90;;;;;;5132406;27;20444;-73
2023/07/10 01:11:19;;;;;;;530.10;496.53;;;20.30;99.90;;;;;;5132469;27;20456;-73
2023/07/10 01:13:49;;;;;;;523.17;490.40;;;20.40;99.90;;;;;;5132632;27;20833;-72
2023/07/10 01:16:17;;;;;;;494.83;463.37;;;20.30;99.90;;;;;;5132590;27;20811;-73
2023/07/10 01:18:44;;;;;;;486.00;455.27;;;20.30;99.90;;;;;;5132100;27;20448;-71
2023/07/10 01:21:23;;;;;;;487.40;456.70;;;20.30;99.90;;;;;;5132331;27;20452;-72
2023/07/10 01:23:50;;;;;;;471.73;440.83;;;20.20;99.90;;;;;;5131909;27;20506;-73
2023/07/10 01:26:17;;;;;;;455.50;426.57;;;20.20;99.90;;;;;;5132142;27;20476;-69
2023/07/10 01:28:45;;;;;;;458.00;428.60;;;20.20;99.90;;;;;;5131991;27;20444;-74
2023/07/10 01:31:15;;;;;;;442.87;414.57;;;20.10;99.90;;;;;;5132124;27;20795;-71
2023/07/10 01:36:36;;;;;;;436.47;408.77;;;20.10;99.90;;;;;;5059903;22;21118;-62
2023/07/10 01:39:19;;;;;;;442.93;413.97;;;20.10;99.90;;;;;;5078653;28;20447;-62
2023/07/10 01:41:46;;;;;;;447.03;417.93;;;20.10;99.90;;;;;;5072226;28;20458;-62
2023/07/10 01:44:22;;;;;;;456.53;426.37;;;20.10;99.90;;;;;;5072882;28;20453;-62
2023/07/10 01:46:49;;;;;;;445.67;415.87;;;20.00;99.90;;;;;;5072094;28;20482;-62
2023/07/10 01:49:17;;;;;;;452.27;421.57;;;20.00;99.90;;;;;;5072498;28;20482;-62
2023/07/10 01:51:45;;;;;;;438.90;410.30;;;20.00;99.90;;;;;;5071867;28;20450;-62
2023/07/10 01:54:14;;;;;;;433.00;404.00;;;20.00;99.90;;;;;;5072193;28;20930;-62
2023/07/10 01:56:42;;;;;;;433.33;403.33;;;20.00;99.90;;;;;;5073220;28;20447;-62
2023/07/10 01:59:09;;;;;;;412.40;386.10;;;20.10;99.90;;;;;;5072111;28;20550;-62
2023/07/10 02:01:36;;;;;;;389.50;364.17;;;20.10;99.90;;;;;;5072243;28;20804;-62
2023/07/10 02:04:03;;;;;;;383.10;358.03;;;20.10;99.90;;;;;;5071809;28;20966;-62
2023/07/10 02:06:31;;;;;;;368.50;345.37;;;20.10;99.90;;;;;;5071799;28;20474;-62
2023/07/10 02:08:59;;;;;;;361.10;337.87;;;20.10;99.90;;;;;;5083459;28;20446;-62
2023/07/10 02:11:26;;;;;;;359.67;337.77;;;20.10;99.90;;;;;;5078621;28;20451;-64
2023/07/10 02:13:53;;;;;;;343.27;322.30;;;20.10;99.90;;;;;;5079383;28;20457;-64
2023/07/10 02:16:20;;;;;;;329.87;309.73;;;20.00;99.90;;;;;;5077184;28;20458;-62
2023/07/10 02:18:47;;;;;;;336.67;317.17;;;20.00;99.90;;;;;;5091056;28;20453;-62
2023/07/10 02:21:13;;;;;;;337.93;317.93;;;20.00;99.90;;;;;;5090856;28;20453;-62
2023/07/10 02:23:41;;;;;;;316.87;298.67;;;20.00;99.90;;;;;;5072469;28;20470;-65
2023/07/10 02:26:09;;;;;;;314.07;296.47;;;20.00;99.90;;;;;;5089287;28;20503;-64
2023/07/10 02:28:36;;;;;;;325.47;307.47;;;20.00;99.90;;;;;;5092055;28;20461;-64
2023/07/10 02:31:05;;;;;;;323.27;305.10;;;20.00;99.90;;;;;;5091622;28;20454;-64
2023/07/10 02:33:34;;;;;;;321.73;303.53;;;20.00;99.90;;;;;;5091958;28;20805;-64
2023/07/10 02:36:01;;;;;;;310.10;292.67;;;19.90;99.90;;;;;;5088391;28;20458;-64
2023/07/10 02:38:28;;;;;;;319.07;301.30;;;19.90;99.90;;;;;;5089631;28;20948;-64
2023/07/10 02:40:55;;;;;;;301.33;285.33;;;19.90;99.90;;;;;;5090552;28;20445;-64
2023/07/10 02:43:24;;;;;;;303.27;286.27;;;19.90;99.90;;;;;;5083237;28;20453;-64
2023/07/10 02:45:51;;;;;;;322.00;304.50;;;19.80;99.90;;;;;;5072161;28;20507;-64
2023/07/10 02:48:18;;;;;;;332.50;314.43;;;19.80;99.90;;;;;;5091661;28;20461;-64
2023/07/10 02:50:45;;;;;;;337.50;319.33;;;19.80;99.90;;;;;;5091725;28;20544;-64
2023/07/10 02:53:11;;;;;;;342.20;323.30;;;19.90;99.90;;;;;;5088717;28;20446;-64
2023/07/10 02:55:38;;;;;;;339.83;321.07;;;19.80;99.90;;;;;;5095242;28;20449;-64
2023/07/10 02:58:07;;;;;;;343.77;324.60;;;19.80;99.90;;;;;;5095800;28;20823;-64
2023/07/10 03:00:35;;;;;;;341.93;323.43;;;19.80;99.90;;;;;;5090284;28;20820;-64
2023/07/10 03:03:02;;;;;;;357.33;337.53;;;19.70;99.90;;;;;;5089773;28;20454;-64
2023/07/10 03:05:29;;;;;;;360.00;339.50;;;19.70;99.90;;;;;;5084245;28;20966;-64
2023/07/10 03:07:56;;;;;;;359.13;339.60;;;19.70;99.90;;;;;;5095463;28;20455;-63
2023/07/10 03:10:24;;;;;;;355.53;335.20;;;19.70;99.90;;;;;;5090505;28;20782;-64
2023/07/10 03:12:51;;;;;;;366.93;346.57;;;19.70;99.90;;;;;;5081152;28;20469;-64
2023/07/10 03:15:18;;;;;;;358.40;338.83;;;19.70;99.90;;;;;;5094824;28;20819;-64
2023/07/10 03:17:46;;;;;;;352.00;332.90;;;19.70;99.90;;;;;;5093133;28;20484;-64
2023/07/10 03:20:13;;;;;;;358.27;338.80;;;19.70;99.90;;;;;;5094223;28;20450;-64
2023/07/10 03:22:39;;;;;;;352.17;333.37;;;19.70;99.90;;;;;;5095304;28;20804;-64
2023/07/10 03:25:09;;;;;;;354.20;335.20;;;19.70;99.90;;;;;;5089318;28;20455;-64
2023/07/10 03:27:36;;;;;;;366.37;346.47;;;19.70;99.90;;;;;;5074652;28;20471;-64
2023/07/10 03:30:04;;;;;;;379.17;358.67;;;19.70;99.90;;;;;;5074457;28;20455;-64
2023/07/10 03:32:30;;;;;;;380.17;358.77;;;19.70;99.90;;;;;;5074903;28;20824;-64
2023/07/10 03:34:59;;;;;;;364.93;344.70;;;19.70;99.90;;;;;;5087833;28;20464;-64
2023/07/10 03:37:26;;;;;;;355.80;336.00;;;19.70;99.90;;;;;;5094597;28;20450;-64
2023/07/10 03:39:52;;;;;;;346.10;326.83;;;19.60;99.90;;;;;;5083158;28;20802;-64
2023/07/10 03:42:19;;;;;;;350.90;331.80;;;19.60;99.90;;;;;;5079814;28;20451;-64
2023/07/10 03:44:46;;;;;;;367.27;346.67;;;19.50;99.90;;;;;;5094178;28;20450;-64
2023/07/10 03:47:13;;;;;;;379.90;358.67;;;19.50;99.90;;;;;;5082326;28;20470;-63
2023/07/10 03:49:40;;;;;;;366.30;345.90;;;19.50;99.90;;;;;;5074684;28;20447;-64
2023/07/10 03:52:08;;;;;;;359.37;339.77;;;19.40;99.90;;;;;;5075324;28;20450;-64
2023/07/10 03:54:36;;;;;;;356.57;337.07;;;19.40;99.90;;;;;;5084169;28;20814;-64
2023/07/10 03:57:03;;;;;;;323.73;306.47;;;19.30;99.90;;;;;;5094117;28;21030;-64
2023/07/10 03:59:30;;;;;;;331.93;315.17;;;19.30;99.90;;;;;;5088734;28;20447;-64
2023/07/10 04:01:56;;;;;;;354.53;334.73;;;19.20;99.90;;;;;;5082888;28;20801;-64
2023/07/10 04:04:23;;;;;;;340.43;322.80;;;19.20;99.90;;;;;;5094206;28;20454;-64
2023/07/10 04:06:50;;;;;;;344.70;325.07;;;19.20;99.90;;;;;;5093308;28;20442;-65
2023/07/10 04:09:18;;;;;;;353.70;335.00;;;19.20;99.90;;;;;;5087908;28;20446;-64
2023/07/10 04:11:45;;;;;;;361.23;341.63;;;19.20;99.90;;;;;;5088865;28;20449;-64
2023/07/10 04:14:12;;;;;;;375.10;353.03;;;19.10;99.90;;;;;;5083667;28;20451;-65
2023/07/10 04:16:39;;;;;;;365.83;345.37;;;19.10;99.90;;;;;;5074533;28;20471;-65
2023/07/10 04:19:05;;;;;;;349.57;329.87;;;19.20;99.90;;;;;;5083683;28;20454;-65
2023/07/10 04:21:33;;;;;;;320.30;303.10;;;19.10;99.90;;;;;;5071068;28;20465;-65
2023/07/10 04:24:00;;;;;;;302.17;286.07;;;19.20;99.90;;;;;;5078546;28;20496;-64
2023/07/10 04:26:30;;;;;;;287.13;271.93;;;19.20;99.90;;;;;;5086356;28;20450;-64
2023/07/10 04:28:59;;;;;;;286.70;272.23;;;19.20;99.90;;;;;;5087070;28;20453;-65
2023/07/10 04:31:27;;;;;;;261.57;248.30;;;19.20;99.90;;;;;;5090761;28;20815;-65
2023/07/10 04:33:54;;;;;;;252.60;240.20;;;19.10;99.90;;;;;;5076230;28;20454;-65
2023/07/10 04:36:22;;;;;;;248.97;236.63;;;19.10;99.90;;;;;;5091616;28;20478;-65
2023/07/10 04:38:49;;;;;;;241.93;230.47;;;19.10;99.90;;;;;;5078145;28;20446;-65
2023/07/10 04:41:18;;;;;;;248.87;237.30;;;19.10;99.90;;;;;;5092710;28;20432;-65
2023/07/10 04:43:47;;;;;;;266.57;254.17;;;19.10;99.90;;;;;;5093463;28;20933;-65
2023/07/10 04:46:16;;;;;;;281.70;268.10;;;19.10;99.90;;;;;;5091335;28;20442;-65
2023/07/10 04:48:43;;;;;;;274.07;260.40;;;19.20;99.90;;;;;;5092137;28;20443;-64
2023/07/10 04:51:11;;;;;;;249.30;237.60;;;19.20;99.90;;;;;;5093289;28;20865;-65
2023/07/10 04:53:38;;;;;;;238.10;227.20;;;19.20;99.90;;;;;;5093312;28;20461;-65
2023/07/10 04:56:08;;;;;;;218.73;209.23;;;19.30;99.90;;;;;;5092883;28;20450;-64
2023/07/10 04:58:51;;;;;;;207.07;197.87;;;19.30;99.90;;;;;;5093746;28;20453;-65
2023/07/10 05:01:19;;;;;;;193.07;184.53;;;19.30;99.90;;;;;;5092971;28;20460;-64
2023/07/10 05:03:47;;;;;;;192.63;183.80;;;19.30;99.90;;;;;;5092835;28;20450;-65
2023/07/10 05:06:14;;;;;;;196.30;187.63;;;19.20;99.90;;;;;;5085901;28;20933;-65
2023/07/10 05:08:41;;;;;;;214.03;204.07;;;19.20;99.90;;;;;;5092794;28;20964;-64
2023/07/10 05:11:07;;;;;;;202.67;193.80;;;19.20;99.90;;;;;;5079831;28;20486;-65
2023/07/10 05:13:34;;;;;;;190.80;182.60;;;19.20;99.90;;;;;;5084154;28;20445;-65
2023/07/10 05:16:03;;;;;;;205.67;196.87;;;19.20;99.90;;;;;;5092498;28;20457;-65
2023/07/10 05:18:30;;;;;;;190.27;181.90;;;19.20;99.90;;;;;;5076151;28;20812;-65
2023/07/10 05:20:59;;;;;;;182.30;174.40;;;19.10;99.90;;;;;;5072498;28;20454;-64
2023/07/10 05:23:26;;;;;;;182.93;175.17;;;19.10;99.90;;;;;;5072723;28;20512;-65
2023/07/10 05:26:01;;;;;;;177.07;169.50;;;19.10;99.90;;;;;;5088686;28;20446;-65
2023/07/10 05:28:29;;;;;;;182.20;173.77;;;19.20;99.90;;;;;;5092720;28;20822;-65
2023/07/10 05:31:00;;;;;;;163.43;156.50;;;19.30;99.90;;;;;;5090299;28;20454;-65
2023/07/10 05:33:28;;;;;;;147.37;141.07;;;19.30;99.90;;;;;;5075684;28;20519;-65
2023/07/10 05:35:57;;;;;;;133.13;127.13;;;19.40;99.90;;;;;;5091860;28;20469;-64
2023/07/10 05:38:26;;;;;;;126.70;121.10;;;19.40;99.90;;;;;;5074872;28;20467;-64
2023/07/10 05:40:53;;;;;;;101.20;96.73;;;19.50;99.90;;;;;;5081495;28;20446;-65
2023/07/10 05:43:20;;;;;;;115.27;110.07;;;19.60;99.90;;;;;;5077597;28;20458;-64
2023/07/10 05:45:48;;;;;;;112.07;107.33;;;19.60;99.90;;;;;;5080286;28;20455;-64
2023/07/10 05:48:15;;;;;;;117.97;112.93;;;19.70;99.90;;;;;;5081647;28;20456;-64
2023/07/10 05:50:46;;;;;;;100.50;96.10;;;19.80;99.90;;;;;;5079161;28;20453;-64
2023/07/10 05:53:13;;;;;;;73.47;69.50;;;19.80;99.90;;;;;;5082141;28;20458;-64
2023/07/10 05:55:45;;;;;;;74.87;71.30;;;19.80;99.90;;;;;;5077480;28;20452;-65
2023/07/10 05:58:12;;;;;;;71.37;67.33;;;19.90;99.90;;;;;;5078142;28;20851;-64
2023/07/10 06:00:38;;;;;;;40.13;37.77;;;20.10;99.90;;;;;;5082175;28;20449;-64
2023/07/10 06:03:05;;;;;;;42.10;39.03;;;20.10;99.90;;;;;;5078122;28;20454;-64
2023/07/10 06:05:32;;;;;;;35.60;32.67;;;20.20;99.90;;;;;;5077351;28;20478;-64
2023/07/10 06:08:01;;;;;;;44.13;40.57;;;20.30;99.90;;;;;;5081969;28;20447;-65
2023/07/10 06:10:28;;;;;;;28.30;24.57;;;20.50;99.90;;;;;;5075743;28;20533;-66
2023/07/10 06:12:55;;;;;;;22.50;20.40;;;20.60;99.90;;;;;;5074441;28;20478;-65
2023/07/10 06:15:22;;;;;;;19.07;14.40;;;20.70;99.90;;;;;;5077273;28;20453;-65
2023/07/10 06:17:49;;;;;;;20.23;10.70;;;20.70;99.90;;;;;;5071936;28;20474;-65
2023/07/10 06:20:16;;;;;;;13.83;10.77;;;20.70;99.90;;;;;;5081827;28;20445;-66
2023/07/10 06:22:43;;;;;;;16.33;9.43;;;20.90;99.90;;;;;;5085128;28;20766;-65
2023/07/10 06:25:11;;;;;;;12.00;7.80;;;21.20;99.90;;;;;;5091598;28;20464;-66
2023/07/10 06:27:38;;;;;;;11.77;8.50;;;21.70;99.90;;;;;;5092333;28;20454;-65
2023/07/10 06:30:06;;;;;;;15.43;8.20;;;22.00;99.90;;;;;;5090489;28;20450;-65
2023/07/10 06:32:34;;;;;;;16.40;8.93;;;22.00;99.90;;;;;;5086087;28;20456;-66
2023/07/10 06:35:01;;;;;;;14.20;7.07;;;21.70;99.90;;;;;;5077776;28;20461;-65
2023/07/10 06:37:27;;;;;;;12.87;8.00;;;21.80;99.90;;;;;;5078441;28;20478;-65
2023/07/10 06:40:05;;;;;;;14.53;7.47;;;21.90;99.90;;;;;;5096059;28;20465;-66
2023/07/10 06:42:33;;;;;;;12.10;7.77;;;22.00;99.90;;;;;;5080711;28;20442;-65
2023/07/10 06:45:00;;;;;;;11.67;6.40;;;21.90;99.90;;;;;;5078016;28;20446;-65
2023/07/10 06:47:27;;;;;;;17.87;7.93;;;21.80;99.90;;;;;;5079673;28;20822;-65
2023/07/10 06:49:54;;;;;;;15.67;8.17;;;21.50;99.90;;;;;;5079393;28;20464;-65
2023/07/10 06:52:21;;;;;;;17.17;8.00;;;21.50;99.90;;;;;;5092817;28;20457;-65
2023/07/10 06:54:48;;;;;;;22.23;8.67;;;21.30;99.90;;;;;;5082025;28;21061;-65
2023/07/10 06:57:14;;;;;;;13.67;7.30;;;21.40;99.90;;;;;;5084638;28;20485;-64
2023/07/10 06:59:43;;;;;;;12.70;7.60;;;21.30;99.90;;;;;;5076092;28;20454;-64
2023/07/10 07:02:12;;;;;;;15.80;7.30;;;21.40;99.90;;;;;;5076439;28;20453;-64
2023/07/10 07:04:39;;;;;;;12.60;7.63;;;21.10;99.90;;;;;;5075990;28;20220;-65
2023/07/10 07:07:06;;;;;;;16.37;6.87;;;21.10;99.90;;;;;;5074508;28;20454;-65
2023/07/10 07:09:33;;;;;;;10.57;6.60;;;21.20;99.90;;;;;;5075267;28;20451;-65
2023/07/10 07:11:59;;;;;;;10.90;6.73;;;21.20;99.90;;;;;;5074903;28;20461;-65
2023/07/10 07:14:26;;;;;;;12.30;6.60;;;21.30;99.90;;;;;;5080046;28;20453;-65
2023/07/10 07:16:55;;;;;;;18.40;6.30;;;21.40;99.90;;;;;;5093648;28;20453;-65
2023/07/10 07:19:21;;;;;;;9.97;5.40;;;21.90;99.90;;;;;;5094054;28;20458;-65
2023/07/10 07:21:48;;;;;;;12.10;7.10;;;22.30;99.90;;;;;;5094153;28;20458;-65
2023/07/10 07:24:15;;;;;;;15.20;5.90;;;22.60;99.90;;;;;;5094106;28;20554;-65
2023/07/10 07:26:42;;;;;;;11.17;6.00;;;22.90;99.70;;;;;;5094043;28;20456;-65
2023/07/10 07:29:09;;;;;;;10.23;6.17;;;23.30;99.80;;;;;;5093635;28;20945;-65
2023/07/10 07:31:39;;;;;;;11.13;4.77;;;23.50;99.90;;;;;;5094778;28;20454;-63
2023/07/10 07:34:07;;;;;;;10.87;4.60;;;23.80;95.70;;;;;;5094790;28;20833;-62
2023/07/10 07:36:34;;;;;;;8.90;4.03;;;24.20;94.50;;;;;;5094617;28;20832;-63
2023/07/10 07:39:03;;;;;;;9.50;4.13;;;24.40;91.00;;;;;;5094925;28;20477;-63
2023/07/10 07:41:31;;;;;;;12.20;5.03;;;24.60;90.10;;;;;;5093601;28;21019;-63
2023/07/10 07:43:58;;;;;;;13.63;4.80;;;24.50;90.00;;;;;;5093529;28;20457;-63
2023/07/10 07:46:25;;;;;;;8.93;4.43;;;24.80;90.10;;;;;;5094304;28;20499;-63
2023/07/10 07:48:52;;;;;;;9.00;4.70;;;25.10;90.20;;;;;;5094577;28;20536;-63
2023/07/10 07:51:23;;;;;;;9.93;5.23;;;24.50;90.00;;;;;;5094372;28;20535;-63
2023/07/10 07:54:02;;;;;;;11.83;4.90;;;24.40;90.00;;;;;;5094782;28;20460;-62
2023/07/10 07:56:29;;;;;;;14.60;5.00;;;24.40;90.00;;;;;;5094170;28;20460;-63
2023/07/10 07:58:56;;;;;;;10.13;5.37;;;24.00;85.70;;;;;;5094312;28;20474;-62
2023/07/10 08:01:23;;;;;;;13.27;5.00;;;24.30;90.00;;;;;;5094279;28;20445;-62
2023/07/10 08:03:49;;;;;;;9.97;4.00;;;24.40;90.00;;;;;;5094188;28;20431;-63
2023/07/10 08:06:16;;;;;;;9.90;4.33;;;24.70;82.50;;;;;;5094237;28;20450;-63
2023/07/10 08:08:45;;;;;;;13.23;3.60;;;24.50;82.20;;;;;;5094360;28;20449;-63
2023/07/10 08:11:11;;;;;;;9.83;4.03;;;24.60;76.60;;;;;;5094426;28;20428;-62
2023/07/10 08:13:39;;;;;;;11.97;5.13;;;24.80;76.00;;;;;;5094311;28;20456;-63
2023/07/10 08:16:05;;;;;;;7.50;3.77;;;25.40;74.90;;;;;;5093832;28;20536;-62
2023/07/10 08:18:32;;;;;;;8.23;3.50;;;25.60;70.40;;;;;;5094051;28;20839;-62
2023/07/10 08:21:03;;;;;;;7.90;3.63;;;25.60;67.60;;;;;;5093918;28;20457;-63
2023/07/10 08:23:36;;;;;;;12.63;3.87;;;25.70;72.20;;;;;;5094154;28;20450;-62
2023/07/10 08:26:08;;;;;;;7.93;2.97;;;26.00;67.00;;;;;;5093785;28;20454;-63
2023/07/10 08:28:35;;;;;;;7.90;2.40;;;25.90;65.40;;;;;;5093945;28;20457;-62
2023/07/10 08:31:03;;;;;;;11.07;3.43;;;25.80;63.50;;;;;;5094022;28;20455;-62
2023/07/10 08:33:32;;;;;;;7.43;2.60;;;25.80;58.50;;;;;;5093696;28;20452;-62
2023/07/10 08:36:01;;;;;;;9.00;2.57;;;26.20;61.90;;;;;;5093297;28;20465;-62
2023/07/10 08:38:28;;;;;;;7.10;2.87;;;26.60;55.20;;;;;;5093464;28;20474;-63
2023/07/10 08:40:58;;;;;;;8.03;2.67;;;26.50;50.10;;;;;;5093395;28;20468;-62
2023/07/10 08:43:31;;;;;;;6.93;2.30;;;26.10;49.80;;;;;;5093457;28;20546;-62
2023/07/10 08:46:05;;;;;;;5.70;2.03;;;26.30;54.50;;;;;;5093413;28;20459;-63
2023/07/10 08:48:36;;;;;;;7.10;2.90;;;26.50;50.10;;;;;;5093537;28;21028;-63
2023/07/10 08:51:15;;;;;;;6.50;2.60;;;27.20;48.30;;;;;;5093272;28;20487;-63
2023/07/10 08:53:46;;;;;;;6.50;2.73;;;27.50;46.30;;;;;;5093263;28;20462;-63
2023/07/10 08:56:23;;;;;;;7.27;3.03;;;27.90;42.10;;;;;;5093039;28;20458;-63
2023/07/10 08:58:53;;;;;;;8.13;2.50;;;28.00;43.00;;;;;;5093339;28;20487;-63
2023/07/10 09:01:29;;;;;;;8.17;2.13;;;27.90;34.20;;;;;;5093362;28;20909;-63
2023/07/10 09:03:59;;;;;;;9.60;2.00;;;27.80;32.70;;;;;;5093133;28;20452;-63
2023/07/10 09:06:40;;;;;;;11.00;1.93;;;27.90;26.80;;;;;;5092836;28;20539;-63
2023/07/10 09:09:23;;;;;;;5.97;2.03;;;27.30;29.80;;;;;;5093372;28;20938;-63
2023/07/10 09:11:52;;;;;;;7.80;2.10;;;27.90;24.90;;;;;;5093065;28;20560;-63
2023/07/10 09:14:30;;;;;;;6.23;1.87;;;28.10;25.00;;;;;;5093065;28;20453;-63
2023/07/10 09:16:59;;;;;;;6.77;2.40;;;27.70;18.60;;;;;;5092632;28;20458;-63
2023/07/10 09:19:29;;;;;;;11.00;2.70;;;27.10;24.40;;;;;;5092753;28;20475;-62
2023/07/10 09:21:56;;;;;;;6.10;1.80;;;27.10;24.40;;;;;;5093017;28;20555;-63
2023/07/10 09:24:24;;;;;;;6.60;1.97;;;27.60;24.40;;;;;;5092916;28;20854;-63
2023/07/10 09:26:51;;;;;;;8.07;2.00;;;27.40;17.10;;;;;;5092389;28;20543;-63
2023/07/10 09:29:28;;;;;;;7.07;1.60;;;26.70;16.70;;;;;;5092665;28;20514;-63
2023/07/10 09:32:01;;;;;;;10.27;1.90;;;27.40;17.30;;;;;;5092842;28;20471;-63
2023/07/10 09:34:31;;;;;;;5.60;1.80;;;27.60;19.30;;;;;;5092796;28;20540;-63
2023/07/10 09:36:59;;;;;;;5.87;1.67;;;28.10;17.40;;;;;;5092473;28;20532;-63
2023/07/10 09:39:28;;;;;;;5.63;1.73;;;28.50;12.70;;;;;;5092613;28;20463;-63
2023/07/10 09:41:58;;;;;;;7.17;2.10;;;28.90;11.30;;;;;;5092132;28;20453;-64
2023/07/10 09:44:34;;;;;;;7.90;2.10;;;29.30;10.50;;;;;;5091746;28;20450;-66
2023/07/10 09:47:09;;;;;;;7.67;2.17;;;29.80;16.00;;;;;;5091820;28;20935;-66
2023/07/10 09:49:41;;;;;;;6.03;2.20;;;29.60;3.40;;;;;;5092429;28;20936;-66
2023/07/10 09:52:21;;;;;;;6.00;1.77;;;29.10;6.50;;;;;;5092095;28;20449;-66
2023/07/10 09:54:49;;;;;;;5.80;2.03;;;29.20;6.50;;;;;;5089292;28;20974;-66
2023/07/10 09:57:18;;;;;;;7.80;1.73;;;29.00;2.40;;;;;;5091004;28;20450;-66
2023/07/10 09:59:52;;;;;;;6.90;2.00;;;28.80;10.20;;;;;;5090941;28;21081;-66
2023/07/10 10:02:22;;;;;;;7.13;1.70;;;28.20;8.70;;;;;;5090930;28;20450;-66
2023/07/10 10:04:54;;;;;;;6.60;2.13;;;28.60;8.60;;;;;;5091341;28;20434;-66
2023/07/10 10:07:23;;;;;;;6.60;1.80;;;29.20;2.90;;;;;;5089533;28;20457;-66
2023/07/10 10:10:18;;;;;;;6.47;1.60;;;29.40;2.70;;;;;;5091379;28;20427;-67
2023/07/10 10:12:50;;;;;;;8.97;1.80;;;29.10;4.90;;;;;;5091238;28;20488;-67
2023/07/10 10:15:29;;;;;;;7.97;2.13;;;29.30;2.60;;;;;;5091394;28;20450;-68
2023/07/10 10:18:03;;;;;;;8.00;1.90;;;29.50;2.70;;;;;;5091699;28;20509;-67
2023/07/10 10:20:33;;;;;;;6.60;1.80;;;29.70;1.00;;;;;;5091768;28;20849;-67
2023/07/10 10:23:01;;;;;;;7.87;2.17;;;30.00;3.00;;;;;;5091991;28;20432;-66
2023/07/10 10:25:48;;;;;;;5.33;1.83;;;30.00;3.00;;;;;;5091524;28;20456;-66
2023/07/10 10:28:28;;;;;;;11.50;2.33;;;29.80;2.80;;;;;;5092070;28;20438;-67
2023/07/10 10:30:59;;;;;;;8.10;2.23;;;29.80;2.90;;;;;;5091862;28;20449;-66
2023/07/10 10:33:35;;;;;;;7.67;2.20;;;29.60;1.00;;;;;;5092122;28;20824;-66
2023/07/10 10:36:19;;;;;;;5.97;2.30;;;29.30;2.60;;;;;;5091330;28;20463;-66
2023/07/10 10:38:53;;;;;;;6.83;2.13;;;29.70;1.80;;;;;;5091918;28;20564;-67
2023/07/10 10:41:39;;;;;;;8.13;2.70;;;30.60;1.00;;;;;;5091793;28;20429;-67
2023/07/10 10:44:11;;;;;;;9.63;2.30;;;31.40;1.00;;;;;;5091641;28;20431;-67
2023/07/10 10:47:05;;;;;;;7.20;2.07;;;30.60;1.00;;;;;;5091415;28;20446;-67
2023/07/10 10:50:08;;;;;;;10.27;2.43;;;30.70;1.00;;;;;;5091932;28;20446;-67
2023/07/10 10:52:43;;;;;;;6.93;2.10;;;30.80;1.00;;;;;;5091718;28;20451;-67
2023/07/10 10:55:33;;;;;;;7.63;2.57;;;31.20;1.00;;;;;;5091953;28;20468;-67
2023/07/10 10:58:14;;;;;;;7.83;2.13;;;31.60;1.00;;;;;;5091554;28;20454;-67
2023/07/10 11:00:59;;;;;;;6.10;2.50;;;31.70;1.00;;;;;;5091596;28;20485;-67
2023/07/10 11:03:32;;;;;;;9.40;2.23;;;31.10;1.00;;;;;;5091075;28;20429;-67
2023/07/10 11:06:17;;;;;;;6.40;1.80;;;30.30;1.00;;;;;;5090523;28;20453;-67
2023/07/10 11:08:49;;;;;;;7.37;2.10;;;29.20;1.00;;;;;;5091031;28;20420;-67
2023/07/10 11:15:12;;;;;;;8.63;2.30;;;30.00;1.00;;;;;;5121417;27;20677;-81
2023/07/10 11:17:39;;;;;;;8.60;2.80;;;30.50;1.00;;;;;;5089399;28;20460;-81
2023/07/10 11:20:14;;;;;;;6.20;2.60;;;31.20;1.00;;;;;;5089617;28;20452;-81
2023/07/10 11:22:49;;;;;;;6.63;2.40;;;31.70;1.00;;;;;;5089343;28;20453;-81
2023/07/10 11:25:31;;;;;;;8.00;2.60;;;31.20;1.00;;;;;;5089185;28;20473;-81
2023/07/10 11:28:02;;;;;;;7.67;1.90;;;31.70;1.00;;;;;;5089147;28;20450;-82
2023/07/10 11:30:35;;;;;;;9.77;2.10;;;31.10;1.00;;;;;;5089401;28;20431;-81
2023/07/10 11:33:05;;;;;;;9.00;2.10;;;32.10;1.00;;;;;;5088960;28;20477;-80
2023/07/10 11:35:32;;;;;;;9.30;2.07;;;32.60;1.00;;;;;;5089308;28;20843;-81
2023/07/10 11:38:16;;;;;;;6.80;1.80;;;32.80;1.00;;;;;;5089075;28;20436;-80
2023/07/10 11:41:07;;;;;;;13.33;2.83;;;33.30;1.00;;;;;;5087660;28;20458;-81
2023/07/10 11:44:19;;;;;;;7.90;2.00;;;32.90;1.00;;;;;;5088959;28;20469;-81
2023/07/10 11:47:02;;;;;;;6.53;2.10;;;32.60;1.00;;;;;;5088438;28;21002;-81
2023/07/10 11:49:45;;;;;;;6.60;2.20;;;31.80;1.00;;;;;;5089011;28;20861;-81
2023/07/10 11:52:27;;;;;;;8.73;2.70;;;31.90;1.00;;;;;;5088844;28;20453;-80
2023/07/10 11:55:13;;;;;;;7.73;2.57;;;33.60;1.00;;;;;;5088434;28;20548;-81
2023/07/10 11:57:41;;;;;;;7.47;2.50;;;33.40;1.00;;;;;;5088309;28;20527;-80
2023/07/10 12:00:27;;;;;;;9.63;1.83;;;32.20;1.00;;;;;;5088644;28;20532;-81
2023/07/10 12:03:01;;;;;;;5.63;1.77;;;33.10;1.00;;;;;;5088034;28;20574;-83
2023/07/10 12:05:35;;;;;;;6.93;2.03;;;33.90;1.00;;;;;;5086817;28;20452;-83
2023/07/10 12:08:06;;;;;;;8.90;2.20;;;34.20;1.00;;;;;;5086628;28;20454;-83
2023/07/10 12:10:37;;;;;;;6.83;2.00;;;33.20;1.00;;;;;;5088135;28;20536;-81
2023/07/10 12:13:17;;;;;;;7.87;1.87;;;31.80;1.00;;;;;;5088153;28;20481;-81
2023/07/10 12:15:46;;;;;;;9.67;2.80;;;30.30;1.00;;;;;;5088089;28;20429;-81
2023/07/10 12:18:19;;;;;;;7.73;2.07;;;29.40;1.00;;;;;;5088195;28;20456;-81
2023/07/10 12:20:50;;;;;;;7.37;2.00;;;29.90;1.00;;;;;;5087019;28;20454;-81
2023/07/10 12:23:17;;;;;;;8.30;2.10;;;30.40;1.00;;;;;;5088337;28;20827;-80
2023/07/10 12:25:48;;;;;;;11.73;2.27;;;31.50;1.00;;;;;;5077777;28;20976;-82
2023/07/10 12:28:16;;;;;;;9.60;2.90;;;31.70;1.00;;;;;;5054132;28;20447;-81
2023/07/10 12:30:48;;;;;;;6.50;2.40;;;32.10;1.00;;;;;;5052575;28;20538;-80
2023/07/10 12:33:42;;;;;;;7.77;1.97;;;31.30;1.00;;;;;;5054122;28;20479;-80
2023/07/10 12:36:22;;;;;;;8.23;2.17;;;30.90;1.00;;;;;;5039386;28;21033;-80
2023/07/10 12:38:52;;;;;;;6.50;2.00;;;31.80;1.00;;;;;;5054399;28;20447;-86
2023/07/10 12:41:20;;;;;;;6.73;2.00;;;32.70;1.00;;;;;;5053161;28;20464;-86
2023/07/10 12:43:48;;;;;;;8.23;1.73;;;32.80;1.00;;;;;;5051861;28;20475;-86
2023/07/10 12:46:23;;;;;;;10.40;2.40;;;33.60;1.00;;;;;;5053143;28;20439;-85
2023/07/10 12:48:56;;;;;;;7.80;2.33;;;34.30;1.00;;;;;;5053005;28;20472;-85
2023/07/10 12:54:04;;;;;;;6.83;1.50;;;36.00;1.00;;;;;;5074019;23;20488;-67